Archival Weather

Biggin Hill

Biggin Hill, United Kingdom (EGKB)

Report from: Thursday, February 22, 2024 11:20 AM GMT
Current time: Wednesday, April 24, 2024 8:43 PM BST

Current weather – Weather history – Daily summaries
Weather forecast

Present weatherLight drizzle
Temperature11.0°C (51.8°F)
Dew point10.0°C (50.0°F)
Winds 14 kts (7.2 m/s, 16.1 mph) South-Southwest (210°)
Visibility5.6 mi. (9 km)
Clouds Ceiling: Broken clouds 800 ft. (244 m)
Altimeter28.94 in.Hg (980 mB)
Relative humidity94 %
Density altitude839 ft. (256 m)
Flight conditions Instrument Meteorological Conditions
Raw dataEGKB 221120Z 21014KT 9000 3000S -DZ BKN008 11/10 Q0980
An error has occurred. This application may no longer respond until reloaded. Reload 🗙